sensor_id;sensor_type;location;lat;lon;timestamp;P1;durP1;ratioP1;P2;durP2;ratioP2
41099;SDS011;26844;53.686;-6.346;2024-03-29T00:00:05;15.50;;;14.80;;
41099;SDS011;26844;53.686;-6.346;2024-03-29T00:02:31;15.95;;;15.25;;
41099;SDS011;26844;53.686;-6.346;2024-03-29T00:04:56;15.80;;;15.10;;
41099;SDS011;26844;53.686;-6.346;2024-03-29T00:07:21;16.00;;;15.30;;
41099;SDS011;26844;53.686;-6.346;2024-03-29T00:09:46;16.25;;;15.55;;
41099;SDS011;26844;53.686;-6.346;2024-03-29T00:12:12;16.08;;;15.38;;
41099;SDS011;26844;53.686;-6.346;2024-03-29T00:14:37;14.80;;;14.20;;
41099;SDS011;26844;53.686;-6.346;2024-03-29T00:17:02;15.38;;;14.68;;
41099;SDS011;26844;53.686;-6.346;2024-03-29T00:19:29;15.20;;;14.50;;
41099;SDS011;26844;53.686;-6.346;2024-03-29T00:21:54;15.40;;;14.70;;
41099;SDS011;26844;53.686;-6.346;2024-03-29T00:24:19;15.20;;;14.50;;
41099;SDS011;26844;53.686;-6.346;2024-03-29T00:26:45;14.88;;;14.20;;
41099;SDS011;26844;53.686;-6.346;2024-03-29T00:29:10;14.70;;;14.10;;
41099;SDS011;26844;53.686;-6.346;2024-03-29T00:31:35;14.93;;;14.23;;
41099;SDS011;26844;53.686;-6.346;2024-03-29T00:34:00;15.32;;;14.63;;
41099;SDS011;26844;53.686;-6.346;2024-03-29T00:36:26;15.68;;;14.98;;
41099;SDS011;26844;53.686;-6.346;2024-03-29T00:38:51;15.40;;;14.70;;
41099;SDS011;26844;53.686;-6.346;2024-03-29T00:41:16;15.05;;;14.38;;
41099;SDS011;26844;53.686;-6.346;2024-03-29T00:43:43;15.23;;;14.53;;
41099;SDS011;26844;53.686;-6.346;2024-03-29T00:46:08;15.52;;;14.82;;
41099;SDS011;26844;53.686;-6.346;2024-03-29T00:48:33;15.40;;;14.70;;
41099;SDS011;26844;53.686;-6.346;2024-03-29T00:51:02;14.98;;;14.32;;
41099;SDS011;26844;53.686;-6.346;2024-03-29T00:53:27;15.35;;;14.65;;
41099;SDS011;26844;53.686;-6.346;2024-03-29T00:55:52;15.30;;;14.60;;
41099;SDS011;26844;53.686;-6.346;2024-03-29T00:58:18;14.93;;;14.32;;
41099;SDS011;26844;53.686;-6.346;2024-03-29T01:00:43;14.98;;;14.38;;
41099;SDS011;26844;53.686;-6.346;2024-03-29T01:03:08;14.88;;;14.27;;
41099;SDS011;26844;53.686;-6.346;2024-03-29T01:05:33;15.23;;;14.52;;
41099;SDS011;26844;53.686;-6.346;2024-03-29T01:07:59;15.27;;;14.57;;
41099;SDS011;26844;53.686;-6.346;2024-03-29T01:10:24;15.10;;;14.40;;
41099;SDS011;26844;53.686;-6.346;2024-03-29T01:12:49;15.30;;;14.60;;
41099;SDS011;26844;53.686;-6.346;2024-03-29T01:15:14;15.10;;;14.40;;
41099;SDS011;26844;53.686;-6.346;2024-03-29T01:17:39;15.32;;;14.63;;
41099;SDS011;26844;53.686;-6.346;2024-03-29T01:20:05;15.90;;;15.20;;
41099;SDS011;26844;53.686;-6.346;2024-03-29T01:22:30;15.93;;;15.23;;
41099;SDS011;26844;53.686;-6.346;2024-03-29T01:24:56;15.43;;;14.73;;
41099;SDS011;26844;53.686;-6.346;2024-03-29T01:27:21;15.50;;;14.80;;
41099;SDS011;26844;53.686;-6.346;2024-03-29T01:29:46;15.65;;;14.95;;
41099;SDS011;26844;53.686;-6.346;2024-03-29T01:32:12;15.50;;;14.80;;
41099;SDS011;26844;53.686;-6.346;2024-03-29T01:34:37;15.68;;;14.98;;
41099;SDS011;26844;53.686;-6.346;2024-03-29T01:37:02;15.60;;;14.90;;
41099;SDS011;26844;53.686;-6.346;2024-03-29T01:39:29;15.80;;;15.10;;
41099;SDS011;26844;53.686;-6.346;2024-03-29T01:41:56;16.10;;;15.40;;
41099;SDS011;26844;53.686;-6.346;2024-03-29T01:44:22;15.80;;;15.10;;
41099;SDS011;26844;53.686;-6.346;2024-03-29T01:46:47;15.48;;;14.77;;
41099;SDS011;26844;53.686;-6.346;2024-03-29T01:49:12;15.95;;;15.25;;
41099;SDS011;26844;53.686;-6.346;2024-03-29T01:51:38;15.77;;;15.07;;
41099;SDS011;26844;53.686;-6.346;2024-03-29T01:54:06;15.73;;;15.02;;
41099;SDS011;26844;53.686;-6.346;2024-03-29T01:56:32;15.63;;;14.93;;
41099;SDS011;26844;53.686;-6.346;2024-03-29T01:58:58;15.77;;;15.07;;
41099;SDS011;26844;53.686;-6.346;2024-03-29T02:01:24;15.68;;;14.98;;
41099;SDS011;26844;53.686;-6.346;2024-03-29T02:03:51;15.68;;;14.98;;
41099;SDS011;26844;53.686;-6.346;2024-03-29T02:06:16;15.75;;;15.05;;
41099;SDS011;26844;53.686;-6.346;2024-03-29T02:08:41;15.32;;;14.63;;
41099;SDS011;26844;53.686;-6.346;2024-03-29T02:11:07;15.77;;;15.07;;
41099;SDS011;26844;53.686;-6.346;2024-03-29T02:13:32;15.65;;;14.95;;
41099;SDS011;26844;53.686;-6.346;2024-03-29T02:15:57;15.65;;;14.95;;
41099;SDS011;26844;53.686;-6.346;2024-03-29T02:18:23;15.50;;;14.80;;
41099;SDS011;26844;53.686;-6.346;2024-03-29T02:20:48;15.55;;;14.85;;
41099;SDS011;26844;53.686;-6.346;2024-03-29T02:23:16;15.32;;;14.63;;
41099;SDS011;26844;53.686;-6.346;2024-03-29T02:25:42;15.52;;;14.82;;
41099;SDS011;26844;53.686;-6.346;2024-03-29T02:28:07;15.40;;;14.70;;
41099;SDS011;26844;53.686;-6.346;2024-03-29T02:30:33;14.82;;;14.13;;
41099;SDS011;26844;53.686;-6.346;2024-03-29T02:32:58;14.23;;;13.63;;
41099;SDS011;26844;53.686;-6.346;2024-03-29T02:35:23;14.55;;;13.93;;
41099;SDS011;26844;53.686;-6.346;2024-03-29T02:37:49;14.45;;;13.85;;
41099;SDS011;26844;53.686;-6.346;2024-03-29T02:40:14;15.10;;;14.40;;
41099;SDS011;26844;53.686;-6.346;2024-03-29T02:42:40;14.10;;;13.50;;
41099;SDS011;26844;53.686;-6.346;2024-03-29T02:45:05;14.50;;;13.90;;
41099;SDS011;26844;53.686;-6.346;2024-03-29T02:47:30;14.60;;;14.00;;
41099;SDS011;26844;53.686;-6.346;2024-03-29T02:49:56;14.48;;;13.88;;
41099;SDS011;26844;53.686;-6.346;2024-03-29T02:52:21;14.43;;;13.82;;
41099;SDS011;26844;53.686;-6.346;2024-03-29T02:54:46;14.63;;;14.02;;
41099;SDS011;26844;53.686;-6.346;2024-03-29T02:57:11;14.13;;;13.52;;
41099;SDS011;26844;53.686;-6.346;2024-03-29T02:59:36;13.93;;;13.32;;
41099;SDS011;26844;53.686;-6.346;2024-03-29T03:02:03;14.50;;;13.90;;
41099;SDS011;26844;53.686;-6.346;2024-03-29T03:04:29;14.43;;;13.82;;
41099;SDS011;26844;53.686;-6.346;2024-03-29T03:06:54;14.45;;;13.85;;
41099;SDS011;26844;53.686;-6.346;2024-03-29T03:09:21;14.15;;;13.55;;
41099;SDS011;26844;53.686;-6.346;2024-03-29T03:12:04;14.25;;;13.65;;
41099;SDS011;26844;53.686;-6.346;2024-03-29T03:14:30;14.23;;;13.63;;
41099;SDS011;26844;53.686;-6.346;2024-03-29T03:16:55;14.30;;;13.70;;
41099;SDS011;26844;53.686;-6.346;2024-03-29T03:19:20;14.55;;;13.95;;
41099;SDS011;26844;53.686;-6.346;2024-03-29T03:21:46;14.40;;;13.80;;
41099;SDS011;26844;53.686;-6.346;2024-03-29T03:24:12;14.40;;;13.80;;
41099;SDS011;26844;53.686;-6.346;2024-03-29T03:26:38;15.00;;;14.30;;
41099;SDS011;26844;53.686;-6.346;2024-03-29T03:29:03;13.85;;;13.25;;
41099;SDS011;26844;53.686;-6.346;2024-03-29T03:31:29;13.88;;;13.27;;
41099;SDS011;26844;53.686;-6.346;2024-03-29T03:33:54;13.70;;;13.10;;
41099;SDS011;26844;53.686;-6.346;2024-03-29T03:36:19;13.85;;;13.25;;
41099;SDS011;26844;53.686;-6.346;2024-03-29T03:38:44;14.10;;;13.50;;
41099;SDS011;26844;53.686;-6.346;2024-03-29T03:41:09;14.10;;;13.50;;
41099;SDS011;26844;53.686;-6.346;2024-03-29T03:43:35;13.93;;;13.32;;
41099;SDS011;26844;53.686;-6.346;2024-03-29T03:46:00;13.32;;;12.73;;
41099;SDS011;26844;53.686;-6.346;2024-03-29T03:48:26;13.55;;;12.95;;
41099;SDS011;26844;53.686;-6.346;2024-03-29T03:50:51;12.80;;;12.30;;
41099;SDS011;26844;53.686;-6.346;2024-03-29T03:53:16;12.57;;;12.07;;
41099;SDS011;26844;53.686;-6.346;2024-03-29T03:55:41;13.00;;;12.45;;
41099;SDS011;26844;53.686;-6.346;2024-03-29T03:58:07;13.32;;;12.73;;
41099;SDS011;26844;53.686;-6.346;2024-03-29T04:00:34;13.68;;;13.07;;
41099;SDS011;26844;53.686;-6.346;2024-03-29T04:02:59;13.50;;;12.90;;
41099;SDS011;26844;53.686;-6.346;2024-03-29T04:05:24;13.57;;;12.98;;
41099;SDS011;26844;53.686;-6.346;2024-03-29T04:07:51;13.32;;;12.73;;
41099;SDS011;26844;53.686;-6.346;2024-03-29T04:10:16;13.57;;;12.98;;
41099;SDS011;26844;53.686;-6.346;2024-03-29T04:12:41;13.00;;;12.50;;
41099;SDS011;26844;53.686;-6.346;2024-03-29T04:15:07;13.50;;;12.90;;
41099;SDS011;26844;53.686;-6.346;2024-03-29T04:17:32;13.48;;;12.88;;
41099;SDS011;26844;53.686;-6.346;2024-03-29T04:19:58;13.00;;;12.50;;
41099;SDS011;26844;53.686;-6.346;2024-03-29T04:22:23;13.35;;;12.75;;
41099;SDS011;26844;53.686;-6.346;2024-03-29T04:24:49;13.10;;;12.60;;
41099;SDS011;26844;53.686;-6.346;2024-03-29T04:27:16;13.52;;;12.93;;
41099;SDS011;26844;53.686;-6.346;2024-03-29T04:29:41;13.20;;;12.60;;
41099;SDS011;26844;53.686;-6.346;2024-03-29T04:32:07;12.95;;;12.45;;
41099;SDS011;26844;53.686;-6.346;2024-03-29T04:34:33;13.25;;;12.68;;
41099;SDS011;26844;53.686;-6.346;2024-03-29T04:36:58;12.90;;;12.40;;
41099;SDS011;26844;53.686;-6.346;2024-03-29T04:39:23;12.70;;;12.20;;
41099;SDS011;26844;53.686;-6.346;2024-03-29T04:41:49;12.77;;;12.27;;
41099;SDS011;26844;53.686;-6.346;2024-03-29T04:44:22;12.45;;;11.95;;
41099;SDS011;26844;53.686;-6.346;2024-03-29T04:46:48;13.07;;;12.57;;
41099;SDS011;26844;53.686;-6.346;2024-03-29T04:49:14;13.05;;;12.55;;
41099;SDS011;26844;53.686;-6.346;2024-03-29T04:51:42;12.85;;;12.35;;
41099;SDS011;26844;53.686;-6.346;2024-03-29T04:54:07;12.32;;;11.82;;
41099;SDS011;26844;53.686;-6.346;2024-03-29T04:56:33;12.70;;;12.20;;
41099;SDS011;26844;53.686;-6.346;2024-03-29T04:58:58;12.88;;;12.38;;
41099;SDS011;26844;53.686;-6.346;2024-03-29T05:01:24;12.77;;;12.27;;
41099;SDS011;26844;53.686;-6.346;2024-03-29T05:03:49;12.80;;;12.30;;
41099;SDS011;26844;53.686;-6.346;2024-03-29T05:06:16;12.60;;;12.10;;
41099;SDS011;26844;53.686;-6.346;2024-03-29T05:08:41;12.30;;;11.80;;
41099;SDS011;26844;53.686;-6.346;2024-03-29T05:11:06;12.50;;;12.00;;
41099;SDS011;26844;53.686;-6.346;2024-03-29T05:13:32;12.52;;;12.02;;
41099;SDS011;26844;53.686;-6.346;2024-03-29T05:15:58;12.82;;;12.32;;
41099;SDS011;26844;53.686;-6.346;2024-03-29T05:18:24;12.88;;;12.38;;
41099;SDS011;26844;53.686;-6.346;2024-03-29T05:20:49;13.00;;;12.45;;
41099;SDS011;26844;53.686;-6.346;2024-03-29T05:23:16;12.90;;;12.40;;
41099;SDS011;26844;53.686;-6.346;2024-03-29T05:25:41;13.23;;;12.63;;
41099;SDS011;26844;53.686;-6.346;2024-03-29T05:28:07;12.60;;;12.10;;
41099;SDS011;26844;53.686;-6.346;2024-03-29T05:30:32;12.70;;;12.20;;
41099;SDS011;26844;53.686;-6.346;2024-03-29T05:32:58;12.77;;;12.27;;
41099;SDS011;26844;53.686;-6.346;2024-03-29T05:35:23;12.73;;;12.23;;
41099;SDS011;26844;53.686;-6.346;2024-03-29T05:37:48;12.45;;;11.95;;
41099;SDS011;26844;53.686;-6.346;2024-03-29T05:40:16;12.27;;;11.77;;
41099;SDS011;26844;53.686;-6.346;2024-03-29T05:42:41;12.73;;;12.23;;
41099;SDS011;26844;53.686;-6.346;2024-03-29T05:45:20;13.20;;;12.60;;
41099;SDS011;26844;53.686;-6.346;2024-03-29T05:47:46;13.23;;;12.65;;
41099;SDS011;26844;53.686;-6.346;2024-03-29T05:50:12;12.88;;;12.38;;
41099;SDS011;26844;53.686;-6.346;2024-03-29T05:52:37;13.25;;;12.65;;
41099;SDS011;26844;53.686;-6.346;2024-03-29T05:55:02;13.35;;;12.75;;
41099;SDS011;26844;53.686;-6.346;2024-03-29T05:57:31;13.05;;;12.55;;
41099;SDS011;26844;53.686;-6.346;2024-03-29T05:59:59;13.30;;;12.70;;
41099;SDS011;26844;53.686;-6.346;2024-03-29T06:02:24;12.40;;;11.90;;
41099;SDS011;26844;53.686;-6.346;2024-03-29T06:04:50;12.60;;;12.10;;
41099;SDS011;26844;53.686;-6.346;2024-03-29T06:07:15;11.90;;;11.40;;
41099;SDS011;26844;53.686;-6.346;2024-03-29T06:09:41;12.50;;;12.00;;
41099;SDS011;26844;53.686;-6.346;2024-03-29T06:12:06;12.68;;;12.18;;
41099;SDS011;26844;53.686;-6.346;2024-03-29T06:14:32;12.27;;;11.77;;
41099;SDS011;26844;53.686;-6.346;2024-03-29T06:17:16;13.40;;;12.80;;
41099;SDS011;26844;53.686;-6.346;2024-03-29T06:19:54;13.05;;;12.52;;
41099;SDS011;26844;53.686;-6.346;2024-03-29T06:22:25;12.88;;;12.38;;
41099;SDS011;26844;53.686;-6.346;2024-03-29T06:24:50;12.90;;;12.40;;
41099;SDS011;26844;53.686;-6.346;2024-03-29T06:27:19;13.32;;;12.73;;
41099;SDS011;26844;53.686;-6.346;2024-03-29T06:29:45;13.18;;;12.57;;
41099;SDS011;26844;53.686;-6.346;2024-03-29T06:32:10;13.70;;;13.10;;
41099;SDS011;26844;53.686;-6.346;2024-03-29T06:34:36;13.65;;;13.05;;
41099;SDS011;26844;53.686;-6.346;2024-03-29T06:37:01;13.77;;;13.18;;
41099;SDS011;26844;53.686;-6.346;2024-03-29T06:39:26;13.57;;;12.98;;
41099;SDS011;26844;53.686;-6.346;2024-03-29T06:41:52;13.50;;;12.90;;
41099;SDS011;26844;53.686;-6.346;2024-03-29T06:44:17;13.60;;;13.00;;
41099;SDS011;26844;53.686;-6.346;2024-03-29T06:46:42;13.30;;;12.70;;
41099;SDS011;26844;53.686;-6.346;2024-03-29T06:49:08;13.30;;;12.70;;
41099;SDS011;26844;53.686;-6.346;2024-03-29T06:51:33;12.95;;;12.43;;
41099;SDS011;26844;53.686;-6.346;2024-03-29T06:53:58;12.85;;;12.35;;
41099;SDS011;26844;53.686;-6.346;2024-03-29T06:56:23;12.50;;;12.00;;
41099;SDS011;26844;53.686;-6.346;2024-03-29T06:58:49;12.35;;;11.85;;
41099;SDS011;26844;53.686;-6.346;2024-03-29T07:01:14;12.15;;;11.65;;
41099;SDS011;26844;53.686;-6.346;2024-03-29T07:03:40;11.80;;;11.30;;
41099;SDS011;26844;53.686;-6.346;2024-03-29T07:06:05;11.60;;;11.10;;
41099;SDS011;26844;53.686;-6.346;2024-03-29T07:08:30;11.80;;;11.30;;
41099;SDS011;26844;53.686;-6.346;2024-03-29T07:10:59;12.38;;;11.88;;
41099;SDS011;26844;53.686;-6.346;2024-03-29T07:13:24;11.82;;;11.32;;
41099;SDS011;26844;53.686;-6.346;2024-03-29T07:15:50;12.40;;;11.90;;
41099;SDS011;26844;53.686;-6.346;2024-03-29T07:18:15;12.10;;;11.60;;
41099;SDS011;26844;53.686;-6.346;2024-03-29T07:20:41;12.13;;;11.63;;
41099;SDS011;26844;53.686;-6.346;2024-03-29T07:23:06;11.70;;;11.20;;
41099;SDS011;26844;53.686;-6.346;2024-03-29T07:25:31;12.27;;;11.77;;
41099;SDS011;26844;53.686;-6.346;2024-03-29T07:27:57;12.80;;;12.30;;
41099;SDS011;26844;53.686;-6.346;2024-03-29T07:30:22;12.65;;;12.15;;
41099;SDS011;26844;53.686;-6.346;2024-03-29T07:32:48;12.00;;;11.50;;
41099;SDS011;26844;53.686;-6.346;2024-03-29T07:35:13;12.30;;;11.80;;
41099;SDS011;26844;53.686;-6.346;2024-03-29T07:37:40;11.95;;;11.45;;
41099;SDS011;26844;53.686;-6.346;2024-03-29T07:40:05;11.93;;;11.43;;
41099;SDS011;26844;53.686;-6.346;2024-03-29T07:42:31;12.43;;;11.93;;
41099;SDS011;26844;53.686;-6.346;2024-03-29T07:44:56;12.68;;;12.18;;
41099;SDS011;26844;53.686;-6.346;2024-03-29T07:47:21;12.80;;;12.30;;
41099;SDS011;26844;53.686;-6.346;2024-03-29T07:49:50;12.20;;;11.70;;
41099;SDS011;26844;53.686;-6.346;2024-03-29T07:52:15;12.43;;;11.93;;
41099;SDS011;26844;53.686;-6.346;2024-03-29T07:54:41;11.77;;;11.30;;
41099;SDS011;26844;53.686;-6.346;2024-03-29T07:57:07;11.25;;;10.85;;
41099;SDS011;26844;53.686;-6.346;2024-03-29T07:59:33;10.65;;;10.25;;
41099;SDS011;26844;53.686;-6.346;2024-03-29T08:01:59;10.00;;;9.60;;
41099;SDS011;26844;53.686;-6.346;2024-03-29T08:04:24;9.73;;;9.32;;
41099;SDS011;26844;53.686;-6.346;2024-03-29T08:06:53;8.40;;;8.10;;
41099;SDS011;26844;53.686;-6.346;2024-03-29T08:09:18;8.10;;;7.80;;
41099;SDS011;26844;53.686;-6.346;2024-03-29T08:11:43;8.88;;;8.57;;
41099;SDS011;26844;53.686;-6.346;2024-03-29T08:14:08;8.38;;;8.07;;
41099;SDS011;26844;53.686;-6.346;2024-03-29T08:16:34;7.80;;;7.50;;
41099;SDS011;26844;53.686;-6.346;2024-03-29T08:18:59;7.30;;;7.00;;
41099;SDS011;26844;53.686;-6.346;2024-03-29T08:21:24;6.25;;;6.05;;
41099;SDS011;26844;53.686;-6.346;2024-03-29T08:23:52;6.10;;;5.90;;
41099;SDS011;26844;53.686;-6.346;2024-03-29T08:26:22;5.75;;;5.55;;
41099;SDS011;26844;53.686;-6.346;2024-03-29T08:28:48;6.28;;;6.07;;
41099;SDS011;26844;53.686;-6.346;2024-03-29T08:31:13;4.75;;;4.60;;
41099;SDS011;26844;53.686;-6.346;2024-03-29T08:33:38;4.38;;;4.28;;
41099;SDS011;26844;53.686;-6.346;2024-03-29T08:36:04;3.58;;;3.47;;
41099;SDS011;26844;53.686;-6.346;2024-03-29T08:38:30;2.95;;;2.85;;
41099;SDS011;26844;53.686;-6.346;2024-03-29T08:40:55;2.70;;;2.60;;
41099;SDS011;26844;53.686;-6.346;2024-03-29T08:43:20;3.20;;;3.10;;
41099;SDS011;26844;53.686;-6.346;2024-03-29T08:45:46;3.13;;;3.03;;
41099;SDS011;26844;53.686;-6.346;2024-03-29T08:48:11;2.80;;;2.70;;
41099;SDS011;26844;53.686;-6.346;2024-03-29T08:50:40;2.20;;;2.20;;
41099;SDS011;26844;53.686;-6.346;2024-03-29T08:53:05;2.38;;;2.30;;
41099;SDS011;26844;53.686;-6.346;2024-03-29T08:55:30;2.20;;;2.20;;
41099;SDS011;26844;53.686;-6.346;2024-03-29T08:57:59;2.53;;;2.42;;
41099;SDS011;26844;53.686;-6.346;2024-03-29T09:00:28;2.80;;;2.70;;
41099;SDS011;26844;53.686;-6.346;2024-03-29T09:02:53;3.30;;;3.20;;
41099;SDS011;26844;53.686;-6.346;2024-03-29T09:05:19;2.83;;;2.72;;
41099;SDS011;26844;53.686;-6.346;2024-03-29T09:07:44;3.17;;;3.08;;
41099;SDS011;26844;53.686;-6.346;2024-03-29T09:10:13;2.63;;;2.53;;
41099;SDS011;26844;53.686;-6.346;2024-03-29T09:12:38;2.42;;;2.33;;
41099;SDS011;26844;53.686;-6.346;2024-03-29T09:15:04;2.00;;;2.00;;
41099;SDS011;26844;53.686;-6.346;2024-03-29T09:17:33;1.92;;;1.92;;
41099;SDS011;26844;53.686;-6.346;2024-03-29T09:19:59;1.88;;;1.88;;
41099;SDS011;26844;53.686;-6.346;2024-03-29T09:22:24;1.77;;;1.77;;
41099;SDS011;26844;53.686;-6.346;2024-03-29T09:24:49;1.60;;;1.60;;
41099;SDS011;26844;53.686;-6.346;2024-03-29T09:27:14;1.58;;;1.58;;
41099;SDS011;26844;53.686;-6.346;2024-03-29T09:29:40;1.60;;;1.60;;
41099;SDS011;26844;53.686;-6.346;2024-03-29T09:32:05;1.40;;;1.40;;
41099;SDS011;26844;53.686;-6.346;2024-03-29T09:34:31;1.50;;;1.50;;
41099;SDS011;26844;53.686;-6.346;2024-03-29T09:36:56;1.60;;;1.60;;
41099;SDS011;26844;53.686;-6.346;2024-03-29T09:39:22;1.40;;;1.40;;
41099;SDS011;26844;53.686;-6.346;2024-03-29T09:41:47;1.50;;;1.50;;
41099;SDS011;26844;53.686;-6.346;2024-03-29T09:44:13;1.25;;;1.25;;
41099;SDS011;26844;53.686;-6.346;2024-03-29T09:46:39;1.50;;;1.50;;
41099;SDS011;26844;53.686;-6.346;2024-03-29T09:49:06;1.73;;;1.73;;
41099;SDS011;26844;53.686;-6.346;2024-03-29T09:51:32;1.50;;;1.50;;
41099;SDS011;26844;53.686;-6.346;2024-03-29T09:53:58;1.60;;;1.60;;
41099;SDS011;26844;53.686;-6.346;2024-03-29T09:56:25;1.58;;;1.58;;
41099;SDS011;26844;53.686;-6.346;2024-03-29T09:58:50;1.60;;;1.60;;
41099;SDS011;26844;53.686;-6.346;2024-03-29T10:01:15;2.00;;;2.00;;
41099;SDS011;26844;53.686;-6.346;2024-03-29T10:03:42;2.10;;;2.10;;
41099;SDS011;26844;53.686;-6.346;2024-03-29T10:06:09;2.00;;;2.00;;
41099;SDS011;26844;53.686;-6.346;2024-03-29T10:08:37;1.85;;;1.85;;
41099;SDS011;26844;53.686;-6.346;2024-03-29T10:11:02;1.75;;;1.75;;
41099;SDS011;26844;53.686;-6.346;2024-03-29T10:13:28;1.80;;;1.80;;
41099;SDS011;26844;53.686;-6.346;2024-03-29T10:15:53;1.70;;;1.70;;
41099;SDS011;26844;53.686;-6.346;2024-03-29T10:18:21;1.80;;;1.80;;
41099;SDS011;26844;53.686;-6.346;2024-03-29T10:20:46;1.65;;;1.65;;
41099;SDS011;26844;53.686;-6.346;2024-03-29T10:23:11;1.80;;;1.80;;
41099;SDS011;26844;53.686;-6.346;2024-03-29T10:25:37;2.10;;;2.10;;
41099;SDS011;26844;53.686;-6.346;2024-03-29T10:28:02;2.00;;;2.00;;
41099;SDS011;26844;53.686;-6.346;2024-03-29T10:30:28;2.10;;;2.10;;
41099;SDS011;26844;53.686;-6.346;2024-03-29T10:32:55;2.13;;;2.13;;
41099;SDS011;26844;53.686;-6.346;2024-03-29T10:35:20;2.50;;;2.40;;
41099;SDS011;26844;53.686;-6.346;2024-03-29T10:37:45;2.78;;;2.67;;
41099;SDS011;26844;53.686;-6.346;2024-03-29T10:40:11;2.35;;;2.30;;
41099;SDS011;26844;53.686;-6.346;2024-03-29T10:42:40;2.00;;;2.00;;
41099;SDS011;26844;53.686;-6.346;2024-03-29T10:45:06;2.00;;;2.00;;
41099;SDS011;26844;53.686;-6.346;2024-03-29T10:47:31;2.20;;;2.20;;
41099;SDS011;26844;53.686;-6.346;2024-03-29T10:49:57;2.50;;;2.40;;
41099;SDS011;26844;53.686;-6.346;2024-03-29T10:52:23;2.17;;;2.17;;
41099;SDS011;26844;53.686;-6.346;2024-03-29T10:54:49;2.70;;;2.60;;
41099;SDS011;26844;53.686;-6.346;2024-03-29T11:05:09;2.70;;;2.60;;
41099;SDS011;26844;53.686;-6.346;2024-03-29T11:07:35;3.00;;;2.90;;
41099;SDS011;26844;53.686;-6.346;2024-03-29T11:10:01;3.20;;;3.10;;
41099;SDS011;26844;53.686;-6.346;2024-03-29T11:12:27;2.80;;;2.70;;
41099;SDS011;26844;53.686;-6.346;2024-03-29T11:17:21;2.67;;;2.58;;
41099;SDS011;26844;53.686;-6.346;2024-03-29T11:19:47;2.75;;;2.65;;
41099;SDS011;26844;53.686;-6.346;2024-03-29T11:22:12;2.65;;;2.55;;
41099;SDS011;26844;53.686;-6.346;2024-03-29T11:24:38;2.70;;;2.60;;
41099;SDS011;26844;53.686;-6.346;2024-03-29T11:27:11;2.60;;;2.50;;
41099;SDS011;26844;53.686;-6.346;2024-03-29T11:29:36;2.13;;;2.13;;
41099;SDS011;26844;53.686;-6.346;2024-03-29T11:32:05;2.15;;;2.15;;
41099;SDS011;26844;53.686;-6.346;2024-03-29T11:34:31;2.53;;;2.42;;
41099;SDS011;26844;53.686;-6.346;2024-03-29T11:37:05;2.30;;;2.30;;
41099;SDS011;26844;53.686;-6.346;2024-03-29T11:39:33;2.20;;;2.20;;
41099;SDS011;26844;53.686;-6.346;2024-03-29T11:41:58;2.60;;;2.50;;
41099;SDS011;26844;53.686;-6.346;2024-03-29T11:46:51;2.63;;;2.53;;
41099;SDS011;26844;53.686;-6.346;2024-03-29T11:49:16;2.70;;;2.60;;
41099;SDS011;26844;53.686;-6.346;2024-03-29T11:51:42;2.50;;;2.40;;
41099;SDS011;26844;53.686;-6.346;2024-03-29T11:54:07;2.50;;;2.40;;
41099;SDS011;26844;53.686;-6.346;2024-03-29T11:56:33;2.00;;;2.00;;
41099;SDS011;26844;53.686;-6.346;2024-03-29T11:58:58;1.85;;;1.85;;
41099;SDS011;26844;53.686;-6.346;2024-03-29T12:01:25;1.97;;;1.97;;
41099;SDS011;26844;53.686;-6.346;2024-03-29T12:03:51;2.03;;;2.03;;
41099;SDS011;26844;53.686;-6.346;2024-03-29T12:06:16;2.00;;;2.00;;
41099;SDS011;26844;53.686;-6.346;2024-03-29T12:08:42;2.70;;;2.60;;
41099;SDS011;26844;53.686;-6.346;2024-03-29T12:11:08;2.40;;;2.30;;
41099;SDS011;26844;53.686;-6.346;2024-03-29T12:13:33;2.13;;;2.13;;
41099;SDS011;26844;53.686;-6.346;2024-03-29T12:15:59;2.42;;;2.33;;
41099;SDS011;26844;53.686;-6.346;2024-03-29T12:18:24;2.20;;;2.20;;
41099;SDS011;26844;53.686;-6.346;2024-03-29T12:21:00;2.22;;;2.22;;
41099;SDS011;26844;53.686;-6.346;2024-03-29T12:23:25;2.10;;;2.10;;
41099;SDS011;26844;53.686;-6.346;2024-03-29T12:25:51;2.00;;;2.00;;
41099;SDS011;26844;53.686;-6.346;2024-03-29T12:28:17;2.20;;;2.20;;
41099;SDS011;26844;53.686;-6.346;2024-03-29T12:30:44;2.50;;;2.40;;
41099;SDS011;26844;53.686;-6.346;2024-03-29T12:33:13;2.47;;;2.38;;
41099;SDS011;26844;53.686;-6.346;2024-03-29T12:35:40;2.28;;;2.28;;
41099;SDS011;26844;53.686;-6.346;2024-03-29T12:38:06;2.60;;;2.50;;
41099;SDS011;26844;53.686;-6.346;2024-03-29T12:40:34;3.10;;;3.00;;
41099;SDS011;26844;53.686;-6.346;2024-03-29T12:43:06;2.67;;;2.58;;
41099;SDS011;26844;53.686;-6.346;2024-03-29T12:45:33;3.00;;;2.90;;
41099;SDS011;26844;53.686;-6.346;2024-03-29T12:47:58;4.03;;;3.92;;
41099;SDS011;26844;53.686;-6.346;2024-03-29T12:50:32;6.80;;;6.60;;
41099;SDS011;26844;53.686;-6.346;2024-03-29T12:52:58;8.00;;;7.70;;
41099;SDS011;26844;53.686;-6.346;2024-03-29T12:55:28;8.27;;;7.97;;
41099;SDS011;26844;53.686;-6.346;2024-03-29T12:57:55;7.65;;;7.35;;
41099;SDS011;26844;53.686;-6.346;2024-03-29T13:00:21;6.80;;;6.60;;
41099;SDS011;26844;53.686;-6.346;2024-03-29T13:02:46;6.90;;;6.70;;
41099;SDS011;26844;53.686;-6.346;2024-03-29T13:05:11;6.60;;;6.40;;
41099;SDS011;26844;53.686;-6.346;2024-03-29T13:07:36;6.78;;;6.57;;
41099;SDS011;26844;53.686;-6.346;2024-03-29T13:10:02;6.55;;;6.35;;
41099;SDS011;26844;53.686;-6.346;2024-03-29T13:12:30;6.45;;;6.25;;
41099;SDS011;26844;53.686;-6.346;2024-03-29T13:14:56;6.00;;;5.80;;
41099;SDS011;26844;53.686;-6.346;2024-03-29T13:17:21;6.63;;;6.43;;
41099;SDS011;26844;53.686;-6.346;2024-03-29T13:19:46;6.45;;;6.25;;
41099;SDS011;26844;53.686;-6.346;2024-03-29T13:22:11;6.47;;;6.28;;
41099;SDS011;26844;53.686;-6.346;2024-03-29T13:24:37;6.15;;;5.95;;
41099;SDS011;26844;53.686;-6.346;2024-03-29T13:27:02;6.40;;;6.20;;
41099;SDS011;26844;53.686;-6.346;2024-03-29T13:29:28;6.70;;;6.50;;
41099;SDS011;26844;53.686;-6.346;2024-03-29T13:31:53;5.55;;;5.35;;
41099;SDS011;26844;53.686;-6.346;2024-03-29T13:34:18;5.55;;;5.35;;
41099;SDS011;26844;53.686;-6.346;2024-03-29T13:36:44;4.82;;;4.63;;
41099;SDS011;26844;53.686;-6.346;2024-03-29T13:39:10;4.00;;;3.90;;
41099;SDS011;26844;53.686;-6.346;2024-03-29T13:41:38;3.75;;;3.65;;
41099;SDS011;26844;53.686;-6.346;2024-03-29T13:44:04;3.20;;;3.10;;
41099;SDS011;26844;53.686;-6.346;2024-03-29T13:46:36;2.80;;;2.70;;
41099;SDS011;26844;53.686;-6.346;2024-03-29T13:49:02;2.40;;;2.30;;
41099;SDS011;26844;53.686;-6.346;2024-03-29T13:51:28;3.17;;;3.07;;
41099;SDS011;26844;53.686;-6.346;2024-03-29T13:53:53;3.13;;;3.03;;
41099;SDS011;26844;53.686;-6.346;2024-03-29T13:56:19;3.10;;;3.00;;
41099;SDS011;26844;53.686;-6.346;2024-03-29T13:58:44;2.78;;;2.67;;
41099;SDS011;26844;53.686;-6.346;2024-03-29T14:01:09;2.95;;;2.85;;
41099;SDS011;26844;53.686;-6.346;2024-03-29T14:03:35;3.00;;;2.90;;
41099;SDS011;26844;53.686;-6.346;2024-03-29T14:06:00;2.90;;;2.80;;
41099;SDS011;26844;53.686;-6.346;2024-03-29T14:08:28;3.63;;;3.53;;
41099;SDS011;26844;53.686;-6.346;2024-03-29T14:10:54;4.10;;;4.00;;
41099;SDS011;26844;53.686;-6.346;2024-03-29T14:13:19;3.63;;;3.53;;
41099;SDS011;26844;53.686;-6.346;2024-03-29T14:15:44;3.50;;;3.40;;
41099;SDS011;26844;53.686;-6.346;2024-03-29T14:18:10;3.42;;;3.33;;
41099;SDS011;26844;53.686;-6.346;2024-03-29T14:20:35;2.70;;;2.60;;
41099;SDS011;26844;53.686;-6.346;2024-03-29T14:23:00;3.80;;;3.70;;
41099;SDS011;26844;53.686;-6.346;2024-03-29T14:25:29;2.88;;;2.78;;